»·PEaware :: AAL255 KJFK-KLAX

AAL255 :: KJFK-KLAX

FLIGHT INFORMATION

Flight Status: Arrived
Operator:
American Airlines
More flights by this operator :: More flights under this callsign
Pilot: Anonymous 30951 (30951)
Aircraft: AIRBUS A321
(A321)
More flights by this aircraft type
Origin: KJFK Kennedy Intl
United States
Destination: KLAX Los Angeles Intl
United States
More flights between these airports :: More routes between these airports
Route: +DEEZZ5 CANDR J60 PSB J60 LNK DVV HVE PROMT Q88 HAKMN ANJLL4
File this flight plan on PilotEdge
Remarks: Will call Denver Center after LNK
Altitude:
(Current/Filed)
36,000ft
Speed:
(Current/Filed)
447kts
Departed: 25-Oct-20 07:58 AM
Arrived: 25-Oct-20 10:53 AM
Distance/Time
Traveled:
2145nm/2:55
Distance/Time
To Go:
Arrived

Flight Plot

Page will automatically refresh every two minutes.

Flight plan parsing failed; only flown route is shown


Map Options




Map Legend


Flown Route
Filed Route
Departure Airport
Arrival Airport
Navaid (VOR, NDB)
Fix

Horizontal Profiles

Position Reports

Time Latitude Longitude Heading Altitude Ground
Speed
25-Oct-20 07:56 40.748768 -98.448011 260 36333ft 346kts
25-Oct-20 07:57 40.734783 -98.573559 260 36332ft 346kts
25-Oct-20 07:58 40.720763 -98.698808 259 36329ft 346kts
25-Oct-20 07:59 40.706615 -98.824337 259 36326ft 347kts
25-Oct-20 08:00 40.692298 -98.949931 259 36324ft 347kts
25-Oct-20 08:01 40.677815 -99.075672 259 36316ft 347kts
25-Oct-20 08:02 40.663188 -99.201417 259 36313ft 348kts
25-Oct-20 08:03 40.648371 -99.327433 259 36310ft 348kts
25-Oct-20 08:04 40.633415 -99.453513 259 36308ft 348kts
25-Oct-20 08:05 40.618341 -99.579205 259 36308ft 348kts
25-Oct-20 08:06 40.603153 -99.704866 258 36308ft 348kts
25-Oct-20 08:07 40.587837 -99.830713 258 36308ft 348kts
25-Oct-20 08:08 40.572382 -99.956239 258 36308ft 348kts
25-Oct-20 08:09 40.556704 -100.082332 258 36308ft 350kts
25-Oct-20 08:10 40.540874 -100.208407 258 36308ft 350kts
25-Oct-20 08:11 40.524873 -100.334731 258 36307ft 350kts
25-Oct-20 08:12 40.508715 -100.461090 258 36308ft 351kts
25-Oct-20 08:13 40.492379 -100.587769 258 36308ft 352kts
25-Oct-20 08:14 40.475928 -100.714423 258 36308ft 353kts
25-Oct-20 08:15 40.459276 -100.841690 258 36308ft 354kts
25-Oct-20 08:16 40.442427 -100.969121 258 36304ft 355kts
25-Oct-20 08:17 40.425314 -101.097233 257 36300ft 357kts
25-Oct-20 08:18 40.407985 -101.225652 258 36299ft 358kts
25-Oct-20 08:19 40.390390 -101.355053 257 36299ft 360kts
25-Oct-20 08:20 40.372552 -101.485007 257 36299ft 362kts
25-Oct-20 08:21 40.354537 -101.615244 258 36299ft 363kts
25-Oct-20 08:22 40.336408 -101.745458 257 36299ft 365kts
25-Oct-20 08:23 40.317994 -101.876607 257 36299ft 365kts
25-Oct-20 08:24 40.299449 -102.007312 257 36299ft 366kts
25-Oct-20 08:25 40.280741 -102.137982 257 36291ft 366kts
25-Oct-20 08:26 40.261770 -102.269417 257 36276ft 366kts
25-Oct-20 08:27 40.242780 -102.399787 257 36266ft 366kts
25-Oct-20 08:28 40.223625 -102.530353 257 36261ft 365kts
25-Oct-20 08:29 40.204402 -102.660368 256 36259ft 364kts
25-Oct-20 08:30 40.185075 -102.790272 256 36252ft 364kts
25-Oct-20 08:31 40.165610 -102.919858 256 36248ft 363kts
25-Oct-20 08:32 40.146005 -103.049219 256 36249ft 363kts
25-Oct-20 08:33 40.126265 -103.178528 256 36237ft 363kts
25-Oct-20 08:34 40.106331 -103.307945 256 36227ft 363kts
25-Oct-20 08:35 40.086224 -103.437464 256 36226ft 364kts
25-Oct-20 08:36 40.066019 -103.566686 256 36226ft 364kts
25-Oct-20 08:37 40.045702 -103.695798 256 36226ft 364kts
25-Oct-20 08:38 40.025160 -103.825500 256 36226ft 365kts
25-Oct-20 08:39 40.004508 -103.954938 256 36226ft 365kts
25-Oct-20 08:40 39.983705 -104.084162 256 36226ft 365kts
25-Oct-20 08:41 39.962705 -104.213587 256 36226ft 364kts
25-Oct-20 08:42 39.941632 -104.342571 256 36226ft 363kts
25-Oct-20 08:43 39.920407 -104.471511 256 36226ft 362kts
25-Oct-20 08:44 39.899088 -104.599876 256 36226ft 362kts
25-Oct-20 08:45 39.872788 -104.726182 253 36226ft 361kts
25-Oct-20 08:46 39.845787 -104.851901 253 36225ft 360kts
25-Oct-20 08:47 39.818704 -104.977449 253 36217ft 358kts
25-Oct-20 08:48 39.791557 -105.102668 253 36223ft 357kts
25-Oct-20 08:49 39.764451 -105.227113 253 36227ft 357kts
25-Oct-20 08:50 39.737183 -105.351505 253 36232ft 356kts
25-Oct-20 08:51 39.710016 -105.475004 253 36167ft 356kts
25-Oct-20 08:52 39.682637 -105.598702 253 35977ft 356kts
25-Oct-20 08:53 39.655105 -105.722471 252 35857ft 357kts
25-Oct-20 08:54 39.627367 -105.846324 252 35847ft 357kts
25-Oct-20 08:56 39.599428 -105.970295 253 35851ft 358kts
25-Oct-20 08:57 39.571488 -106.093698 252 35866ft 358kts
25-Oct-20 08:58 39.543300 -106.217441 253 35886ft 357kts
25-Oct-20 08:59 39.515023 -106.340955 253 35899ft 357kts
25-Oct-20 09:00 39.486660 -106.464254 252 35873ft 356kts
25-Oct-20 09:01 39.458215 -106.587102 252 35835ft 357kts
25-Oct-20 09:02 39.429559 -106.710357 252 35825ft 356kts
25-Oct-20 09:03 39.400952 -106.832862 252 35810ft 356kts
25-Oct-20 09:04 39.372229 -106.955170 251 35805ft 356kts
25-Oct-20 09:05 39.343251 -107.077726 251 35808ft 356kts
25-Oct-20 09:06 39.314292 -107.199640 251 35808ft 355kts
25-Oct-20 09:07 39.285191 -107.321533 251 35808ft 355kts
25-Oct-20 09:08 39.255919 -107.443411 251 35801ft 355kts
25-Oct-20 09:09 39.226574 -107.564886 251 35789ft 355kts
25-Oct-20 09:10 39.197096 -107.686425 251 35784ft 355kts
25-Oct-20 09:10 39.172406 -107.787908 251 35782ft 355kts
25-Oct-20 09:12 39.137694 -107.929628 251 35777ft 355kts
25-Oct-20 09:12 39.112776 -108.030918 251 35774ft 356kts
25-Oct-20 09:14 39.077554 -108.173234 251 35757ft 358kts
25-Oct-20 09:14 39.052207 -108.275076 251 35739ft 358kts
25-Oct-20 09:16 39.016442 -108.417969 251 35728ft 359kts
25-Oct-20 09:16 38.990861 -108.519607 251 35727ft 359kts
25-Oct-20 09:17 38.959881 -108.642247 251 35734ft 360kts
25-Oct-20 09:18 38.928936 -108.764521 250 35741ft 361kts
25-Oct-20 09:19 38.897595 -108.887655 250 35748ft 361kts
25-Oct-20 09:20 38.865908 -109.009784 250 35750ft 362kts
25-Oct-20 09:21 38.834063 -109.133033 250 35731ft 363kts
25-Oct-20 09:22 38.802031 -109.256619 250 35702ft 365kts
25-Oct-20 09:23 38.769873 -109.380149 250 35690ft 366kts
25-Oct-20 09:24 38.737384 -109.504285 250 35688ft 368kts
25-Oct-20 09:25 38.704676 -109.628715 250 35689ft 369kts
25-Oct-20 09:26 38.671760 -109.753839 249 35689ft 370kts
25-Oct-20 09:27 38.638687 -109.878774 249 35689ft 372kts
25-Oct-20 09:28 38.605168 -110.004557 249 35692ft 373kts
25-Oct-20 09:29 38.571346 -110.130756 249 35711ft 375kts
25-Oct-20 09:30 38.537192 -110.257526 250 36656ft 371kts
25-Oct-20 09:31 38.503866 -110.380798 250 37516ft 367kts
25-Oct-20 09:32 38.470497 -110.503807 250 37723ft 367kts
25-Oct-20 09:33 38.435261 -110.626040 246 37724ft 367kts
25-Oct-20 09:34 38.382705 -110.737612 235 37725ft 370kts
25-Oct-20 09:35 38.312885 -110.834407 229 37722ft 372kts
25-Oct-20 09:36 38.240349 -110.928767 229 37720ft 374kts
25-Oct-20 09:37 38.167346 -111.023247 229 37742ft 375kts
25-Oct-20 09:38 38.093923 -111.117899 229 37775ft 375kts
25-Oct-20 09:39 38.019934 -111.212997 229 37800ft 376kts
25-Oct-20 09:40 37.946203 -111.307467 229 37805ft 378kts
25-Oct-20 09:41 37.872107 -111.401837 229 37807ft 378kts
25-Oct-20 09:42 37.797916 -111.495817 229 37812ft 378kts
25-Oct-20 09:43 37.723508 -111.590274 229 37815ft 378kts
25-Oct-20 09:44 37.649192 -111.684557 229 37839ft 378kts
25-Oct-20 09:45 37.574428 -111.779251 229 37885ft 379kts
25-Oct-20 09:46 37.501132 -111.874889 233 37889ft 376kts
25-Oct-20 09:47 37.438367 -111.979218 236 37890ft 374kts
25-Oct-20 09:48 37.376115 -112.085335 236 37891ft 376kts
25-Oct-20 09:49 37.314097 -112.190952 236 37889ft 377kts
25-Oct-20 09:50 37.251778 -112.296980 236 37880ft 378kts
25-Oct-20 09:51 37.189410 -112.402814 236 37874ft 378kts
25-Oct-20 09:52 37.126798 -112.508719 236 37873ft 378kts
25-Oct-20 09:53 37.063872 -112.614833 236 37873ft 379kts
25-Oct-20 09:54 37.000826 -112.720875 236 37876ft 380kts
25-Oct-20 09:55 36.937678 -112.826897 235 37880ft 380kts
25-Oct-20 09:56 36.874352 -112.932491 235 37881ft 381kts
25-Oct-20 09:57 36.810611 -113.038252 235 37879ft 381kts
25-Oct-20 09:58 36.746904 -113.144046 235 37880ft 382kts
25-Oct-20 09:59 36.682818 -113.250340 235 37880ft 384kts
25-Oct-20 10:00 36.618636 -113.356680 236 37873ft 384kts
25-Oct-20 10:01 36.557004 -113.465233 237 37843ft 385kts
25-Oct-20 10:02 36.494953 -113.574372 237 37809ft 386kts
25-Oct-20 10:03 36.432738 -113.683541 236 37803ft 389kts
25-Oct-20 10:04 36.370221 -113.793082 236 37800ft 390kts
25-Oct-20 10:05 36.307470 -113.902433 236 37800ft 390kts
25-Oct-20 10:06 36.244583 -114.011567 236 37799ft 390kts
25-Oct-20 10:07 36.181557 -114.120650 236 37793ft 392kts
25-Oct-20 10:08 36.118261 -114.229934 236 37788ft 389kts
25-Oct-20 10:09 36.050197 -114.334749 231 37793ft 394kts
25-Oct-20 10:10 35.977529 -114.435558 231 37791ft 394kts
25-Oct-20 10:11 35.904522 -114.536442 231 37789ft 395kts
25-Oct-20 10:12 35.830934 -114.637295 231 37794ft 396kts
25-Oct-20 10:13 35.757781 -114.738175 230 37790ft 396kts
25-Oct-20 10:14 35.683990 -114.839460 230 37790ft 398kts
25-Oct-20 10:15 35.610072 -114.940482 230 37790ft 399kts
25-Oct-20 10:16 35.535648 -115.042078 231 37786ft 400kts
25-Oct-20 10:17 35.459684 -115.143121 230 37796ft 403kts
25-Oct-20 10:18 35.382707 -115.243271 230 37804ft 404kts
25-Oct-20 10:19 35.305709 -115.343470 230 37806ft 405kts
25-Oct-20 10:20 35.228600 -115.443620 230 37806ft 405kts
25-Oct-20 10:21 35.151286 -115.543791 230 37808ft 406kts
25-Oct-20 10:22 35.073373 -115.643689 230 37840ft 407kts
25-Oct-20 10:23 34.995093 -115.743900 229 37901ft 407kts
25-Oct-20 10:24 34.916773 -115.843743 229 37912ft 408kts
25-Oct-20 10:25 34.838166 -115.943176 229 37923ft 408kts
25-Oct-20 10:26 34.759542 -116.042713 229 37903ft 414kts
25-Oct-20 10:27 34.678635 -116.145606 229 35472ft 433kts
25-Oct-20 10:28 34.594794 -116.252017 229 32461ft 440kts
25-Oct-20 10:29 34.509412 -116.360254 230 29427ft 451kts
25-Oct-20 10:30 34.423805 -116.472680 238 26539ft 450kts
25-Oct-20 10:31 34.365559 -116.600841 249 24539ft 428kts
25-Oct-20 10:32 34.315155 -116.724939 249 23327ft 398kts
25-Oct-20 10:33 34.267870 -116.843085 248 21585ft 386kts
25-Oct-20 10:34 34.221723 -116.957516 248 19912ft 373kts
25-Oct-20 10:35 34.187146 -117.072238 255 18333ft 356kts
25-Oct-20 10:36 34.156929 -117.183781 254 16758ft 345kts
25-Oct-20 10:37 34.126968 -117.292349 254 15221ft 333kts
25-Oct-20 10:38 34.098566 -117.396943 255 13701ft 322kts
25-Oct-20 10:39 34.072823 -117.498326 251 12357ft 305kts
25-Oct-20 10:40 34.040089 -117.591098 248 11024ft 293kts
25-Oct-20 10:41 34.009336 -117.679473 254 10022ft 267kts
25-Oct-20 10:42 33.998582 -117.769130 263 8765ft 270kts
25-Oct-20 10:43 33.989830 -117.859027 262 7478ft 269kts
25-Oct-20 10:44 33.981032 -117.948991 262 6399ft 269kts
25-Oct-20 10:45 33.972221 -118.038164 262 5387ft 265kts
25-Oct-20 10:46 33.963733 -118.123410 262 4222ft 246kts
25-Oct-20 10:47 33.955942 -118.202244 263 3038ft 225kts
25-Oct-20 10:48 33.948906 -118.270326 263 1973ft 176kts
25-Oct-20 10:50 33.943662 -118.321269 264 1122ft 140kts
25-Oct-20 10:51 33.938834 -118.367630 266 418ft 136kts
25-Oct-20 10:52 33.935292 -118.403323 271 120ft 42kts
25-Oct-20 10:53 33.935910 -118.406465 285 126ft 0kts
25-Oct-20 10:54 33.935943 -118.407908 273 127ft 14kts
25-Oct-20 10:55 33.938722 -118.408723 76 127ft 9kts

Navigation Log

Ident Type
Flight plan parsing failed, navigation log unavailable